sensor_id;sensor_type;location;lat;lon;timestamp;P1;durP1;ratioP1;P2;durP2;ratioP2
40611;SDS011;26317;44.894;20.286;2022-08-19T00:00:45;12.88;;;8.38;;
40611;SDS011;26317;44.894;20.286;2022-08-19T00:03:15;13.32;;;8.18;;
40611;SDS011;26317;44.894;20.286;2022-08-19T00:05:44;13.27;;;8.25;;
40611;SDS011;26317;44.894;20.286;2022-08-19T00:08:13;14.30;;;8.98;;
40611;SDS011;26317;44.894;20.286;2022-08-19T00:10:41;11.50;;;7.60;;
40611;SDS011;26317;44.894;20.286;2022-08-19T00:13:11;12.63;;;7.55;;
40611;SDS011;26317;44.894;20.286;2022-08-19T00:15:46;12.60;;;7.78;;
40611;SDS011;26317;44.894;20.286;2022-08-19T00:18:15;13.85;;;8.18;;
40611;SDS011;26317;44.894;20.286;2022-08-19T00:20:43;13.13;;;8.57;;
40611;SDS011;26317;44.894;20.286;2022-08-19T00:23:13;12.00;;;8.85;;
40611;SDS011;26317;44.894;20.286;2022-08-19T00:25:41;13.07;;;9.15;;
40611;SDS011;26317;44.894;20.286;2022-08-19T00:28:10;18.25;;;8.63;;
40611;SDS011;26317;44.894;20.286;2022-08-19T00:30:39;9.68;;;7.43;;
40611;SDS011;26317;44.894;20.286;2022-08-19T00:33:11;12.43;;;8.32;;
40611;SDS011;26317;44.894;20.286;2022-08-19T00:35:41;10.05;;;7.85;;
40611;SDS011;26317;44.894;20.286;2022-08-19T00:38:14;15.18;;;8.82;;
40611;SDS011;26317;44.894;20.286;2022-08-19T00:40:43;12.05;;;8.00;;
40611;SDS011;26317;44.894;20.286;2022-08-19T00:43:13;11.25;;;8.80;;
40611;SDS011;26317;44.894;20.286;2022-08-19T00:45:47;12.63;;;8.75;;
40611;SDS011;26317;44.894;20.286;2022-08-19T00:48:19;9.77;;;8.02;;
40611;SDS011;26317;44.894;20.286;2022-08-19T00:50:52;13.15;;;8.40;;
40611;SDS011;26317;44.894;20.286;2022-08-19T00:55:53;10.82;;;8.60;;
40611;SDS011;26317;44.894;20.286;2022-08-19T00:58:25;9.88;;;8.70;;
40611;SDS011;26317;44.894;20.286;2022-08-19T01:00:58;13.70;;;9.10;;
40611;SDS011;26317;44.894;20.286;2022-08-19T01:03:30;18.45;;;9.68;;
40611;SDS011;26317;44.894;20.286;2022-08-19T01:06:00;13.85;;;9.38;;
40611;SDS011;26317;44.894;20.286;2022-08-19T01:08:29;14.50;;;9.88;;
40611;SDS011;26317;44.894;20.286;2022-08-19T01:10:58;12.43;;;9.40;;
40611;SDS011;26317;44.894;20.286;2022-08-19T01:13:35;14.18;;;9.80;;
40611;SDS011;26317;44.894;20.286;2022-08-19T01:16:05;13.23;;;9.80;;
40611;SDS011;26317;44.894;20.286;2022-08-19T01:18:43;16.42;;;9.95;;
40611;SDS011;26317;44.894;20.286;2022-08-19T01:21:15;14.93;;;9.90;;
40611;SDS011;26317;44.894;20.286;2022-08-19T01:23:52;15.35;;;9.75;;
40611;SDS011;26317;44.894;20.286;2022-08-19T01:26:25;15.15;;;8.63;;
40611;SDS011;26317;44.894;20.286;2022-08-19T01:28:56;11.70;;;8.63;;
40611;SDS011;26317;44.894;20.286;2022-08-19T01:31:27;11.45;;;8.65;;
40611;SDS011;26317;44.894;20.286;2022-08-19T01:33:58;18.10;;;9.05;;
40611;SDS011;26317;44.894;20.286;2022-08-19T01:36:28;10.30;;;8.98;;
40611;SDS011;26317;44.894;20.286;2022-08-19T01:39:03;15.25;;;8.95;;
40611;SDS011;26317;44.894;20.286;2022-08-19T01:41:35;16.77;;;9.60;;
40611;SDS011;26317;44.894;20.286;2022-08-19T01:44:04;18.90;;;10.35;;
40611;SDS011;26317;44.894;20.286;2022-08-19T01:46:37;19.58;;;12.43;;
40611;SDS011;26317;44.894;20.286;2022-08-19T01:51:36;21.05;;;12.70;;
40611;SDS011;26317;44.894;20.286;2022-08-19T01:54:08;21.73;;;13.20;;
40611;SDS011;26317;44.894;20.286;2022-08-19T01:56:38;20.63;;;12.20;;
40611;SDS011;26317;44.894;20.286;2022-08-19T01:59:09;15.05;;;11.43;;
40611;SDS011;26317;44.894;20.286;2022-08-19T02:08:39;21.00;;;12.10;;
40611;SDS011;26317;44.894;20.286;2022-08-19T02:11:17;14.20;;;10.48;;
40611;SDS011;26317;44.894;20.286;2022-08-19T02:13:47;22.75;;;12.30;;
40611;SDS011;26317;44.894;20.286;2022-08-19T02:16:17;16.35;;;10.75;;
40611;SDS011;26317;44.894;20.286;2022-08-19T02:18:46;22.60;;;11.73;;
40611;SDS011;26317;44.894;20.286;2022-08-19T02:21:16;17.35;;;9.70;;
40611;SDS011;26317;44.894;20.286;2022-08-19T02:23:45;13.88;;;10.45;;
40611;SDS011;26317;44.894;20.286;2022-08-19T02:26:17;13.05;;;10.73;;
40611;SDS011;26317;44.894;20.286;2022-08-19T02:28:46;13.63;;;10.93;;
40611;SDS011;26317;44.894;20.286;2022-08-19T02:31:17;19.70;;;10.38;;
40611;SDS011;26317;44.894;20.286;2022-08-19T02:33:48;20.15;;;11.88;;
40611;SDS011;26317;44.894;20.286;2022-08-19T02:36:17;15.35;;;10.43;;
40611;SDS011;26317;44.894;20.286;2022-08-19T02:38:46;14.18;;;11.27;;
40611;SDS011;26317;44.894;20.286;2022-08-19T02:41:14;14.15;;;10.85;;
40611;SDS011;26317;44.894;20.286;2022-08-19T02:43:47;14.63;;;10.43;;
40611;SDS011;26317;44.894;20.286;2022-08-19T02:46:17;17.35;;;10.82;;
40611;SDS011;26317;44.894;20.286;2022-08-19T02:48:47;15.25;;;10.77;;
40611;SDS011;26317;44.894;20.286;2022-08-19T02:51:17;14.98;;;10.80;;
40611;SDS011;26317;44.894;20.286;2022-08-19T02:53:50;16.10;;;11.63;;
40611;SDS011;26317;44.894;20.286;2022-08-19T02:56:23;17.63;;;10.98;;
40611;SDS011;26317;44.894;20.286;2022-08-19T02:58:52;15.15;;;11.15;;
40611;SDS011;26317;44.894;20.286;2022-08-19T03:01:22;21.83;;;11.07;;
40611;SDS011;26317;44.894;20.286;2022-08-19T03:03:53;12.63;;;10.45;;
40611;SDS011;26317;44.894;20.286;2022-08-19T03:06:22;18.15;;;11.85;;
40611;SDS011;26317;44.894;20.286;2022-08-19T03:08:52;25.02;;;10.75;;
40611;SDS011;26317;44.894;20.286;2022-08-19T03:11:26;13.68;;;11.15;;
40611;SDS011;26317;44.894;20.286;2022-08-19T03:13:58;17.98;;;12.07;;
40611;SDS011;26317;44.894;20.286;2022-08-19T03:16:28;19.83;;;12.48;;
40611;SDS011;26317;44.894;20.286;2022-08-19T03:19:00;16.63;;;12.95;;
40611;SDS011;26317;44.894;20.286;2022-08-19T03:21:30;18.90;;;12.43;;
40611;SDS011;26317;44.894;20.286;2022-08-19T03:24:05;19.58;;;12.50;;
40611;SDS011;26317;44.894;20.286;2022-08-19T03:26:41;13.48;;;12.07;;
40611;SDS011;26317;44.894;20.286;2022-08-19T03:29:11;15.07;;;13.00;;
40611;SDS011;26317;44.894;20.286;2022-08-19T03:31:41;20.02;;;12.85;;
40611;SDS011;26317;44.894;20.286;2022-08-19T03:34:12;14.50;;;11.93;;
40611;SDS011;26317;44.894;20.286;2022-08-19T03:36:44;17.95;;;13.57;;
40611;SDS011;26317;44.894;20.286;2022-08-19T03:39:14;22.83;;;12.98;;
40611;SDS011;26317;44.894;20.286;2022-08-19T03:41:47;15.93;;;13.43;;
40611;SDS011;26317;44.894;20.286;2022-08-19T03:44:18;25.02;;;19.25;;
40611;SDS011;26317;44.894;20.286;2022-08-19T03:46:49;19.33;;;13.32;;
40611;SDS011;26317;44.894;20.286;2022-08-19T03:49:20;22.27;;;13.77;;
40611;SDS011;26317;44.894;20.286;2022-08-19T03:51:51;22.63;;;13.40;;
40611;SDS011;26317;44.894;20.286;2022-08-19T03:54:20;24.23;;;13.98;;
40611;SDS011;26317;44.894;20.286;2022-08-19T03:56:54;20.88;;;13.70;;
40611;SDS011;26317;44.894;20.286;2022-08-19T03:59:25;20.75;;;12.80;;
40611;SDS011;26317;44.894;20.286;2022-08-19T04:01:56;15.82;;;12.75;;
40611;SDS011;26317;44.894;20.286;2022-08-19T04:04:26;19.35;;;13.48;;
40611;SDS011;26317;44.894;20.286;2022-08-19T04:06:56;17.98;;;13.05;;
40611;SDS011;26317;44.894;20.286;2022-08-19T04:09:25;19.05;;;13.20;;
40611;SDS011;26317;44.894;20.286;2022-08-19T04:11:57;13.68;;;12.07;;
40611;SDS011;26317;44.894;20.286;2022-08-19T04:14:27;18.55;;;13.38;;
40611;SDS011;26317;44.894;20.286;2022-08-19T04:16:59;17.85;;;12.75;;
40611;SDS011;26317;44.894;20.286;2022-08-19T04:19:30;14.95;;;12.15;;
40611;SDS011;26317;44.894;20.286;2022-08-19T04:21:59;17.85;;;12.35;;
40611;SDS011;26317;44.894;20.286;2022-08-19T04:24:28;17.48;;;11.52;;
40611;SDS011;26317;44.894;20.286;2022-08-19T04:27:04;15.98;;;12.13;;
40611;SDS011;26317;44.894;20.286;2022-08-19T04:29:33;18.05;;;12.10;;
40611;SDS011;26317;44.894;20.286;2022-08-19T04:34:34;17.02;;;12.18;;
40611;SDS011;26317;44.894;20.286;2022-08-19T04:37:04;17.73;;;11.65;;
40611;SDS011;26317;44.894;20.286;2022-08-19T04:39:37;18.85;;;11.23;;
40611;SDS011;26317;44.894;20.286;2022-08-19T04:42:21;19.70;;;11.35;;
40611;SDS011;26317;44.894;20.286;2022-08-19T04:45:03;18.67;;;10.60;;
40611;SDS011;26317;44.894;20.286;2022-08-19T04:47:32;20.90;;;11.77;;
40611;SDS011;26317;44.894;20.286;2022-08-19T04:50:02;12.75;;;10.90;;
40611;SDS011;26317;44.894;20.286;2022-08-19T04:52:31;24.48;;;11.93;;
40611;SDS011;26317;44.894;20.286;2022-08-19T04:55:00;17.45;;;11.30;;
40611;SDS011;26317;44.894;20.286;2022-08-19T05:00:06;19.77;;;11.32;;
40611;SDS011;26317;44.894;20.286;2022-08-19T05:02:36;16.73;;;10.48;;
40611;SDS011;26317;44.894;20.286;2022-08-19T05:05:06;14.02;;;10.90;;
40611;SDS011;26317;44.894;20.286;2022-08-19T05:07:36;17.63;;;10.82;;
40611;SDS011;26317;44.894;20.286;2022-08-19T05:10:06;23.90;;;10.88;;
40611;SDS011;26317;44.894;20.286;2022-08-19T05:12:39;17.92;;;9.90;;
40611;SDS011;26317;44.894;20.286;2022-08-19T05:15:11;14.98;;;10.55;;
40611;SDS011;26317;44.894;20.286;2022-08-19T05:17:40;17.02;;;10.48;;
40611;SDS011;26317;44.894;20.286;2022-08-19T05:20:30;13.40;;;10.65;;
40611;SDS011;26317;44.894;20.286;2022-08-19T05:23:11;17.17;;;10.77;;
40611;SDS011;26317;44.894;20.286;2022-08-19T05:25:44;13.38;;;10.30;;
40611;SDS011;26317;44.894;20.286;2022-08-19T05:28:16;13.13;;;10.60;;
40611;SDS011;26317;44.894;20.286;2022-08-19T05:30:45;19.08;;;9.38;;
40611;SDS011;26317;44.894;20.286;2022-08-19T05:35:44;13.50;;;10.38;;
40611;SDS011;26317;44.894;20.286;2022-08-19T05:38:13;13.82;;;9.45;;
40611;SDS011;26317;44.894;20.286;2022-08-19T05:40:42;16.90;;;10.30;;
40611;SDS011;26317;44.894;20.286;2022-08-19T05:43:17;14.80;;;9.90;;
40611;SDS011;26317;44.894;20.286;2022-08-19T05:45:47;15.45;;;9.57;;
40611;SDS011;26317;44.894;20.286;2022-08-19T05:48:16;17.63;;;8.93;;
40611;SDS011;26317;44.894;20.286;2022-08-19T05:50:45;15.57;;;10.43;;
40611;SDS011;26317;44.894;20.286;2022-08-19T05:53:15;16.05;;;9.70;;
40611;SDS011;26317;44.894;20.286;2022-08-19T05:55:44;12.20;;;9.38;;
40611;SDS011;26317;44.894;20.286;2022-08-19T05:58:13;16.48;;;9.13;;
40611;SDS011;26317;44.894;20.286;2022-08-19T06:00:45;20.95;;;10.63;;
40611;SDS011;26317;44.894;20.286;2022-08-19T06:03:13;17.05;;;9.70;;
40611;SDS011;26317;44.894;20.286;2022-08-19T06:05:42;12.85;;;9.68;;
40611;SDS011;26317;44.894;20.286;2022-08-19T06:08:11;14.48;;;8.52;;
40611;SDS011;26317;44.894;20.286;2022-08-19T06:10:40;12.48;;;8.45;;
40611;SDS011;26317;44.894;20.286;2022-08-19T06:13:12;13.13;;;8.52;;
40611;SDS011;26317;44.894;20.286;2022-08-19T06:15:40;16.02;;;8.48;;
40611;SDS011;26317;44.894;20.286;2022-08-19T06:18:14;14.95;;;8.63;;
40611;SDS011;26317;44.894;20.286;2022-08-19T06:20:44;9.38;;;7.95;;
40611;SDS011;26317;44.894;20.286;2022-08-19T06:23:14;14.60;;;8.45;;
40611;SDS011;26317;44.894;20.286;2022-08-19T06:25:45;13.15;;;8.65;;
40611;SDS011;26317;44.894;20.286;2022-08-19T06:28:14;8.95;;;7.72;;
40611;SDS011;26317;44.894;20.286;2022-08-19T06:30:46;12.55;;;8.40;;
40611;SDS011;26317;44.894;20.286;2022-08-19T06:33:28;14.75;;;8.07;;
40611;SDS011;26317;44.894;20.286;2022-08-19T06:35:58;26.35;;;7.93;;
40611;SDS011;26317;44.894;20.286;2022-08-19T06:38:26;16.35;;;8.00;;
40611;SDS011;26317;44.894;20.286;2022-08-19T06:40:59;17.15;;;9.68;;
40611;SDS011;26317;44.894;20.286;2022-08-19T06:43:29;11.45;;;7.47;;
40611;SDS011;26317;44.894;20.286;2022-08-19T06:45:59;12.85;;;7.60;;
40611;SDS011;26317;44.894;20.286;2022-08-19T06:48:31;14.00;;;7.53;;
40611;SDS011;26317;44.894;20.286;2022-08-19T06:51:00;9.90;;;7.70;;
40611;SDS011;26317;44.894;20.286;2022-08-19T06:53:31;13.35;;;7.78;;
40611;SDS011;26317;44.894;20.286;2022-08-19T06:56:00;9.80;;;7.05;;
40611;SDS011;26317;44.894;20.286;2022-08-19T06:58:29;12.07;;;7.38;;
40611;SDS011;26317;44.894;20.286;2022-08-19T07:03:33;15.95;;;7.20;;
40611;SDS011;26317;44.894;20.286;2022-08-19T07:06:04;13.98;;;7.35;;
40611;SDS011;26317;44.894;20.286;2022-08-19T07:08:35;13.15;;;6.95;;
40611;SDS011;26317;44.894;20.286;2022-08-19T07:11:08;11.77;;;7.00;;
40611;SDS011;26317;44.894;20.286;2022-08-19T07:13:41;8.40;;;6.63;;
40611;SDS011;26317;44.894;20.286;2022-08-19T07:16:11;10.38;;;6.70;;
40611;SDS011;26317;44.894;20.286;2022-08-19T07:18:44;11.50;;;7.00;;
40611;SDS011;26317;44.894;20.286;2022-08-19T07:21:15;11.98;;;6.55;;
40611;SDS011;26317;44.894;20.286;2022-08-19T07:23:45;10.10;;;6.60;;
40611;SDS011;26317;44.894;20.286;2022-08-19T07:26:16;10.80;;;7.22;;
40611;SDS011;26317;44.894;20.286;2022-08-19T07:28:49;12.50;;;5.70;;
40611;SDS011;26317;44.894;20.286;2022-08-19T07:31:18;9.68;;;6.50;;
40611;SDS011;26317;44.894;20.286;2022-08-19T07:33:52;11.15;;;6.13;;
40611;SDS011;26317;44.894;20.286;2022-08-19T07:36:24;11.43;;;6.55;;
40611;SDS011;26317;44.894;20.286;2022-08-19T07:38:59;9.23;;;6.72;;
40611;SDS011;26317;44.894;20.286;2022-08-19T07:41:29;16.60;;;7.18;;
40611;SDS011;26317;44.894;20.286;2022-08-19T07:43:58;10.98;;;6.50;;
40611;SDS011;26317;44.894;20.286;2022-08-19T07:46:29;13.57;;;7.63;;
40611;SDS011;26317;44.894;20.286;2022-08-19T07:49:01;11.15;;;6.78;;
40611;SDS011;26317;44.894;20.286;2022-08-19T07:51:31;11.88;;;7.32;;
40611;SDS011;26317;44.894;20.286;2022-08-19T07:54:01;8.63;;;6.05;;
40611;SDS011;26317;44.894;20.286;2022-08-19T07:56:29;8.95;;;6.80;;
40611;SDS011;26317;44.894;20.286;2022-08-19T07:58:58;8.98;;;6.80;;
40611;SDS011;26317;44.894;20.286;2022-08-19T08:01:31;10.82;;;6.43;;
40611;SDS011;26317;44.894;20.286;2022-08-19T08:04:02;10.40;;;7.37;;
40611;SDS011;26317;44.894;20.286;2022-08-19T08:06:45;9.68;;;6.45;;
40611;SDS011;26317;44.894;20.286;2022-08-19T08:09:29;13.30;;;7.28;;
40611;SDS011;26317;44.894;20.286;2022-08-19T08:12:05;12.27;;;7.35;;
40611;SDS011;26317;44.894;20.286;2022-08-19T08:14:37;13.70;;;7.03;;
40611;SDS011;26317;44.894;20.286;2022-08-19T08:17:09;13.98;;;7.15;;
40611;SDS011;26317;44.894;20.286;2022-08-19T08:19:42;14.85;;;6.80;;
40611;SDS011;26317;44.894;20.286;2022-08-19T08:22:12;14.85;;;8.15;;
40611;SDS011;26317;44.894;20.286;2022-08-19T08:25:12;13.57;;;6.70;;
40611;SDS011;26317;44.894;20.286;2022-08-19T08:27:43;19.58;;;7.95;;
40611;SDS011;26317;44.894;20.286;2022-08-19T08:30:14;14.30;;;7.07;;
40611;SDS011;26317;44.894;20.286;2022-08-19T08:32:48;15.35;;;6.05;;
40611;SDS011;26317;44.894;20.286;2022-08-19T08:35:21;18.08;;;6.97;;
40611;SDS011;26317;44.894;20.286;2022-08-19T08:37:52;16.30;;;6.10;;
40611;SDS011;26317;44.894;20.286;2022-08-19T08:40:23;12.27;;;7.70;;
40611;SDS011;26317;44.894;20.286;2022-08-19T08:43:03;13.50;;;5.72;;
40611;SDS011;26317;44.894;20.286;2022-08-19T08:45:42;13.27;;;6.40;;
40611;SDS011;26317;44.894;20.286;2022-08-19T08:48:16;17.27;;;6.28;;
40611;SDS011;26317;44.894;20.286;2022-08-19T08:50:53;13.63;;;6.32;;
40611;SDS011;26317;44.894;20.286;2022-08-19T08:53:25;9.05;;;6.03;;
40611;SDS011;26317;44.894;20.286;2022-08-19T08:55:54;11.60;;;6.05;;
40611;SDS011;26317;44.894;20.286;2022-08-19T08:58:25;14.02;;;5.93;;
40611;SDS011;26317;44.894;20.286;2022-08-19T09:00:57;17.25;;;5.53;;
40611;SDS011;26317;44.894;20.286;2022-08-19T09:03:26;7.82;;;5.35;;
40611;SDS011;26317;44.894;20.286;2022-08-19T09:06:01;12.57;;;6.10;;
40611;SDS011;26317;44.894;20.286;2022-08-19T09:08:40;15.23;;;5.63;;
40611;SDS011;26317;44.894;20.286;2022-08-19T09:11:25;10.88;;;6.40;;
40611;SDS011;26317;44.894;20.286;2022-08-19T09:14:08;17.40;;;6.05;;
40611;SDS011;26317;44.894;20.286;2022-08-19T09:16:45;13.32;;;6.13;;
40611;SDS011;26317;44.894;20.286;2022-08-19T09:19:14;11.63;;;6.05;;
40611;SDS011;26317;44.894;20.286;2022-08-19T09:21:46;15.20;;;6.10;;
40611;SDS011;26317;44.894;20.286;2022-08-19T09:24:15;15.07;;;5.97;;
40611;SDS011;26317;44.894;20.286;2022-08-19T09:26:44;14.98;;;5.70;;
40611;SDS011;26317;44.894;20.286;2022-08-19T09:29:13;8.70;;;5.43;;
40611;SDS011;26317;44.894;20.286;2022-08-19T09:31:42;9.23;;;5.10;;
40611;SDS011;26317;44.894;20.286;2022-08-19T09:34:11;7.75;;;5.13;;
40611;SDS011;26317;44.894;20.286;2022-08-19T09:36:40;12.98;;;5.35;;
40611;SDS011;26317;44.894;20.286;2022-08-19T09:39:11;7.93;;;5.10;;
40611;SDS011;26317;44.894;20.286;2022-08-19T09:41:40;9.32;;;5.38;;
40611;SDS011;26317;44.894;20.286;2022-08-19T09:44:09;9.77;;;5.13;;
40611;SDS011;26317;44.894;20.286;2022-08-19T09:46:39;10.68;;;5.25;;
40611;SDS011;26317;44.894;20.286;2022-08-19T09:49:07;12.45;;;5.88;;
40611;SDS011;26317;44.894;20.286;2022-08-19T09:51:36;9.68;;;5.40;;
40611;SDS011;26317;44.894;20.286;2022-08-19T09:54:05;8.35;;;5.72;;
40611;SDS011;26317;44.894;20.286;2022-08-19T09:56:37;11.13;;;5.30;;
40611;SDS011;26317;44.894;20.286;2022-08-19T09:59:06;10.48;;;5.68;;
40611;SDS011;26317;44.894;20.286;2022-08-19T10:01:35;5.77;;;4.63;;
40611;SDS011;26317;44.894;20.286;2022-08-19T10:04:04;5.00;;;4.53;;
40611;SDS011;26317;44.894;20.286;2022-08-19T10:06:34;8.27;;;4.90;;
40611;SDS011;26317;44.894;20.286;2022-08-19T10:09:05;7.90;;;5.35;;
40611;SDS011;26317;44.894;20.286;2022-08-19T10:14:08;6.53;;;5.03;;
40611;SDS011;26317;44.894;20.286;2022-08-19T10:16:37;8.98;;;5.30;;
40611;SDS011;26317;44.894;20.286;2022-08-19T10:19:07;8.00;;;4.93;;
40611;SDS011;26317;44.894;20.286;2022-08-19T10:21:36;8.02;;;4.75;;
40611;SDS011;26317;44.894;20.286;2022-08-19T10:24:05;12.15;;;5.50;;
40611;SDS011;26317;44.894;20.286;2022-08-19T10:26:38;9.82;;;4.35;;
40611;SDS011;26317;44.894;20.286;2022-08-19T10:29:12;13.57;;;4.88;;
40611;SDS011;26317;44.894;20.286;2022-08-19T10:31:42;7.97;;;5.50;;
40611;SDS011;26317;44.894;20.286;2022-08-19T10:34:13;7.95;;;4.90;;
40611;SDS011;26317;44.894;20.286;2022-08-19T10:36:42;9.23;;;4.70;;
40611;SDS011;26317;44.894;20.286;2022-08-19T10:39:11;10.07;;;5.30;;
40611;SDS011;26317;44.894;20.286;2022-08-19T10:41:43;7.47;;;4.32;;
40611;SDS011;26317;44.894;20.286;2022-08-19T10:44:12;15.20;;;4.35;;
40611;SDS011;26317;44.894;20.286;2022-08-19T10:46:43;9.55;;;4.82;;
40611;SDS011;26317;44.894;20.286;2022-08-19T10:49:13;9.25;;;4.28;;
40611;SDS011;26317;44.894;20.286;2022-08-19T10:51:44;9.80;;;4.68;;
40611;SDS011;26317;44.894;20.286;2022-08-19T10:54:25;12.57;;;4.63;;
40611;SDS011;26317;44.894;20.286;2022-08-19T10:57:20;10.80;;;4.78;;
40611;SDS011;26317;44.894;20.286;2022-08-19T10:59:49;6.80;;;4.47;;
40611;SDS011;26317;44.894;20.286;2022-08-19T11:02:18;7.50;;;4.30;;
40611;SDS011;26317;44.894;20.286;2022-08-19T11:04:47;7.30;;;5.38;;
40611;SDS011;26317;44.894;20.286;2022-08-19T11:07:16;6.25;;;4.90;;
40611;SDS011;26317;44.894;20.286;2022-08-19T11:09:47;6.70;;;4.20;;
40611;SDS011;26317;44.894;20.286;2022-08-19T11:12:15;6.32;;;4.43;;
40611;SDS011;26317;44.894;20.286;2022-08-19T11:14:47;5.43;;;4.78;;
40611;SDS011;26317;44.894;20.286;2022-08-19T11:17:16;10.93;;;4.85;;
40611;SDS011;26317;44.894;20.286;2022-08-19T11:19:45;8.23;;;4.53;;
40611;SDS011;26317;44.894;20.286;2022-08-19T11:22:14;8.60;;;5.20;;
40611;SDS011;26317;44.894;20.286;2022-08-19T11:24:43;8.40;;;4.78;;
40611;SDS011;26317;44.894;20.286;2022-08-19T11:27:12;9.48;;;4.47;;
40611;SDS011;26317;44.894;20.286;2022-08-19T11:29:41;5.70;;;4.85;;
40611;SDS011;26317;44.894;20.286;2022-08-19T11:32:13;9.98;;;4.68;;
40611;SDS011;26317;44.894;20.286;2022-08-19T11:34:41;8.82;;;4.85;;
40611;SDS011;26317;44.894;20.286;2022-08-19T11:37:10;10.15;;;4.80;;
40611;SDS011;26317;44.894;20.286;2022-08-19T11:39:39;7.15;;;4.45;;
40611;SDS011;26317;44.894;20.286;2022-08-19T11:42:08;9.18;;;4.72;;
40611;SDS011;26317;44.894;20.286;2022-08-19T11:44:49;10.43;;;5.43;;
40611;SDS011;26317;44.894;20.286;2022-08-19T11:47:20;10.43;;;4.95;;
40611;SDS011;26317;44.894;20.286;2022-08-19T11:49:49;10.27;;;4.55;;
40611;SDS011;26317;44.894;20.286;2022-08-19T11:52:18;8.57;;;4.72;;
40611;SDS011;26317;44.894;20.286;2022-08-19T11:54:47;16.27;;;5.70;;
40611;SDS011;26317;44.894;20.286;2022-08-19T11:57:16;10.73;;;4.70;;
40611;SDS011;26317;44.894;20.286;2022-08-19T11:59:48;12.85;;;6.25;;
40611;SDS011;26317;44.894;20.286;2022-08-19T12:02:20;12.73;;;5.10;;
40611;SDS011;26317;44.894;20.286;2022-08-19T12:04:51;10.13;;;5.28;;
40611;SDS011;26317;44.894;20.286;2022-08-19T12:09:50;12.23;;;5.38;;
40611;SDS011;26317;44.894;20.286;2022-08-19T12:12:18;7.93;;;4.30;;
40611;SDS011;26317;44.894;20.286;2022-08-19T12:14:49;18.33;;;5.43;;
40611;SDS011;26317;44.894;20.286;2022-08-19T12:17:24;13.40;;;5.38;;
40611;SDS011;26317;44.894;20.286;2022-08-19T12:19:56;8.38;;;4.25;;
40611;SDS011;26317;44.894;20.286;2022-08-19T12:22:25;11.05;;;4.72;;
40611;SDS011;26317;44.894;20.286;2022-08-19T12:24:54;11.95;;;4.45;;
40611;SDS011;26317;44.894;20.286;2022-08-19T12:27:23;7.47;;;4.30;;
40611;SDS011;26317;44.894;20.286;2022-08-19T12:29:52;12.60;;;5.03;;
40611;SDS011;26317;44.894;20.286;2022-08-19T12:32:23;8.80;;;4.32;;
40611;SDS011;26317;44.894;20.286;2022-08-19T12:34:52;14.38;;;5.45;;
40611;SDS011;26317;44.894;20.286;2022-08-19T12:37:22;11.40;;;4.28;;
40611;SDS011;26317;44.894;20.286;2022-08-19T12:39:50;17.55;;;4.75;;
40611;SDS011;26317;44.894;20.286;2022-08-19T12:42:19;10.50;;;4.70;;
40611;SDS011;26317;44.894;20.286;2022-08-19T12:44:48;13.48;;;4.55;;
40611;SDS011;26317;44.894;20.286;2022-08-19T12:47:17;10.90;;;4.50;;
40611;SDS011;26317;44.894;20.286;2022-08-19T12:49:49;11.25;;;4.88;;
40611;SDS011;26317;44.894;20.286;2022-08-19T12:52:19;15.98;;;5.57;;
40611;SDS011;26317;44.894;20.286;2022-08-19T12:57:16;10.05;;;6.15;;
40611;SDS011;26317;44.894;20.286;2022-08-19T12:59:45;12.50;;;6.15;;
40611;SDS011;26317;44.894;20.286;2022-08-19T13:02:14;10.55;;;5.47;;
40611;SDS011;26317;44.894;20.286;2022-08-19T13:04:42;13.43;;;5.72;;
40611;SDS011;26317;44.894;20.286;2022-08-19T13:07:14;14.07;;;10.70;;
40611;SDS011;26317;44.894;20.286;2022-08-19T13:09:43;14.95;;;8.00;;
40611;SDS011;26317;44.894;20.286;2022-08-19T13:12:11;16.27;;;5.57;;
40611;SDS011;26317;44.894;20.286;2022-08-19T13:14:40;11.35;;;6.05;;
40611;SDS011;26317;44.894;20.286;2022-08-19T13:17:17;8.43;;;5.22;;
40611;SDS011;26317;44.894;20.286;2022-08-19T13:19:45;19.70;;;4.95;;
40611;SDS011;26317;44.894;20.286;2022-08-19T13:22:18;11.57;;;7.30;;
40611;SDS011;26317;44.894;20.286;2022-08-19T13:24:47;12.35;;;6.07;;
40611;SDS011;26317;44.894;20.286;2022-08-19T13:27:16;10.30;;;5.13;;
40611;SDS011;26317;44.894;20.286;2022-08-19T13:29:45;11.82;;;4.63;;
40611;SDS011;26317;44.894;20.286;2022-08-19T13:32:26;16.27;;;6.72;;
40611;SDS011;26317;44.894;20.286;2022-08-19T13:35:07;12.48;;;5.72;;
40611;SDS011;26317;44.894;20.286;2022-08-19T13:37:43;15.32;;;8.10;;
40611;SDS011;26317;44.894;20.286;2022-08-19T13:40:13;13.00;;;4.57;;
40611;SDS011;26317;44.894;20.286;2022-08-19T13:42:44;7.43;;;4.38;;
40611;SDS011;26317;44.894;20.286;2022-08-19T13:45:16;12.13;;;4.55;;
40611;SDS011;26317;44.894;20.286;2022-08-19T13:47:47;14.98;;;4.78;;
40611;SDS011;26317;44.894;20.286;2022-08-19T13:50:18;15.60;;;5.78;;
40611;SDS011;26317;44.894;20.286;2022-08-19T13:52:53;10.25;;;4.40;;
40611;SDS011;26317;44.894;20.286;2022-08-19T13:55:23;11.32;;;4.43;;
40611;SDS011;26317;44.894;20.286;2022-08-19T13:57:52;12.95;;;4.72;;
40611;SDS011;26317;44.894;20.286;2022-08-19T14:00:22;10.30;;;4.43;;
40611;SDS011;26317;44.894;20.286;2022-08-19T14:02:54;11.30;;;4.43;;
40611;SDS011;26317;44.894;20.286;2022-08-19T14:05:27;10.57;;;3.90;;
40611;SDS011;26317;44.894;20.286;2022-08-19T14:07:59;9.95;;;4.28;;
40611;SDS011;26317;44.894;20.286;2022-08-19T14:10:28;9.82;;;4.18;;
40611;SDS011;26317;44.894;20.286;2022-08-19T14:12:59;11.18;;;3.85;;
40611;SDS011;26317;44.894;20.286;2022-08-19T14:15:29;18.95;;;5.00;;
40611;SDS011;26317;44.894;20.286;2022-08-19T14:17:59;16.48;;;5.20;;
40611;SDS011;26317;44.894;20.286;2022-08-19T14:20:29;9.00;;;4.18;;
40611;SDS011;26317;44.894;20.286;2022-08-19T14:23:02;11.85;;;4.57;;
40611;SDS011;26317;44.894;20.286;2022-08-19T14:25:31;13.68;;;4.43;;
40611;SDS011;26317;44.894;20.286;2022-08-19T14:28:00;12.25;;;4.90;;
40611;SDS011;26317;44.894;20.286;2022-08-19T14:30:31;12.52;;;4.75;;
40611;SDS011;26317;44.894;20.286;2022-08-19T14:33:03;12.80;;;4.53;;
40611;SDS011;26317;44.894;20.286;2022-08-19T14:35:33;8.68;;;4.40;;
40611;SDS011;26317;44.894;20.286;2022-08-19T14:38:05;9.65;;;4.55;;
40611;SDS011;26317;44.894;20.286;2022-08-19T14:40:42;10.65;;;4.30;;
40611;SDS011;26317;44.894;20.286;2022-08-19T14:43:11;13.67;;;4.50;;
40611;SDS011;26317;44.894;20.286;2022-08-19T14:45:40;10.80;;;4.35;;
40611;SDS011;26317;44.894;20.286;2022-08-19T14:48:09;11.80;;;4.10;;
40611;SDS011;26317;44.894;20.286;2022-08-19T14:50:38;16.10;;;4.22;;
40611;SDS011;26317;44.894;20.286;2022-08-19T14:53:09;15.48;;;4.72;;
40611;SDS011;26317;44.894;20.286;2022-08-19T14:55:40;10.90;;;4.43;;
40611;SDS011;26317;44.894;20.286;2022-08-19T14:58:10;11.48;;;4.78;;
40611;SDS011;26317;44.894;20.286;2022-08-19T15:03:08;12.02;;;4.38;;
40611;SDS011;26317;44.894;20.286;2022-08-19T15:05:38;14.77;;;4.47;;
40611;SDS011;26317;44.894;20.286;2022-08-19T15:08:09;16.35;;;5.00;;
40611;SDS011;26317;44.894;20.286;2022-08-19T15:10:38;13.63;;;4.97;;
40611;SDS011;26317;44.894;20.286;2022-08-19T15:13:08;12.05;;;4.43;;
40611;SDS011;26317;44.894;20.286;2022-08-19T15:15:36;11.73;;;5.10;;